Ibiuna, Brazil
Current Conditions -  °F | °C
As of 11:00 PM on Sunday 23 Nov 2014 (Local Time) from SBSP Reporting Station
Overcast Overcast  
Wind Chill: 64°   Ceiling: 700
Heat Index: 64°   Visibility: 5mi
Dew Point: 61°   Wind: 10mph
Humidity: 88%   Direction: 150°SSE
Pressure: 30.12"   Gusts: NA
Location:  23.65°S, 47.22°W
Report Text: SBSP 240100Z 15009KT 8000 SCT004 OVC007 18/16 Q1020
Loading
Personal Weather Stations






























Interactive Weather Map New forecast layout! Learn more

10-Day Weather Forecast

Advertisements
Track Severe Weather on mobile